Holmes Beach, Florida
Current Conditions -  °F | °C
As of 9:53 AM on Thursday 30 Oct 2014 (Local Time) from KSRQ Reporting Station
Few Clouds Few Clouds  
Wind Chill: 75°   Ceiling: Unl
Heat Index: 75°   Visibility: 10mi
Dew Point: 67°   Wind: 5mph
Humidity: 76%   Direction: 130°SE
Pressure: 29.97"   Gusts: NA
Location:  27.5°N, 82.71°W
Report Text: KSRQ 301353Z AUTO 13004KT 10SM FEW120 24/19 A2997 RMK AO2 SLP148 T02390194
Loading
Personal Weather Stations






























Interactive Weather Map New forecast layout! Learn more

10-Day Weather Forecast

Advertisements
Track Severe Weather on mobile